Time;durP1;ratioP1;P1;durP2;ratioP2;P2;SDS_P1;SDS_P2;PMS_P1;PMS_P2;Temp;Humidity;BMP_temperature;BMP_pressure;BME280_temperature;BME280_humidity;BME280_pressure;Samples;Min_cycle;Max_cycle;Signal;HPM_P1;HPM_P2
2021/05/05 00:02:04;;;;;;;2.70;1.83;;;;;;;8.11;65.42;99015.88;5059313;28;20681;-65
2021/05/05 00:04:30;;;;;;;3.53;2.30;;;;;;;8.10;65.01;99007.09;5066690;28;20593;-65
2021/05/05 00:06:57;;;;;;;2.43;2.23;;;;;;;8.11;64.72;99000.81;5071633;28;20670;-65
2021/05/05 00:09:24;;;;;;;2.20;1.83;;;;;;;8.11;65.08;99014.06;5062121;28;20210;-65
2021/05/05 00:11:51;;;;;;;2.57;1.87;;;;;;;8.12;64.13;99004.31;5050112;28;20225;-64
2021/05/05 00:14:18;;;;;;;2.70;2.17;;;;;;;8.10;64.71;99012.38;5067633;28;20225;-66
2021/05/05 00:16:44;;;;;;;2.97;1.97;;;;;;;8.11;63.87;99005.28;5073136;28;20204;-65
2021/05/05 00:19:11;;;;;;;3.23;2.17;;;;;;;8.10;64.16;99000.94;5070072;28;20204;-65
2021/05/05 00:21:37;;;;;;;2.40;2.10;;;;;;;8.11;63.77;99002.63;5061925;28;20197;-64
2021/05/05 00:24:04;;;;;;;3.30;2.03;;;;;;;8.09;64.41;98999.25;5069099;28;20251;-65
2021/05/05 00:26:30;;;;;;;3.07;2.33;;;;;;;8.08;63.34;98998.41;5069502;28;20209;-66
2021/05/05 00:28:57;;;;;;;3.33;1.80;;;;;;;8.08;63.86;99006.34;5063738;28;20227;-66
2021/05/05 00:31:24;;;;;;;2.33;2.13;;;;;;;8.07;63.35;98998.53;5067992;28;20209;-65
2021/05/05 00:33:50;;;;;;;2.23;2.03;;;;;;;8.05;63.92;98997.84;5069097;28;20237;-66
2021/05/05 00:36:16;;;;;;;2.10;2.00;;;;;;;8.05;63.41;99003.97;5068370;28;20309;-62
2021/05/05 00:38:44;;;;;;;2.47;2.27;;;;;;;8.05;63.85;98987.22;5066454;28;20209;-66
2021/05/05 00:41:11;;;;;;;2.10;1.90;;;;;;;8.06;63.64;98989.72;5069977;28;20224;-66
2021/05/05 00:43:38;;;;;;;3.27;1.90;;;;;;;8.03;64.06;98984.69;5058500;28;20501;-66
2021/05/05 00:46:05;;;;;;;2.17;1.73;;;;;;;8.02;64.12;98990.97;5065959;28;20216;-66
2021/05/05 00:48:32;;;;;;;2.20;1.90;;;;;;;8.00;64.21;98991.06;5069531;28;20271;-65
2021/05/05 00:50:58;;;;;;;2.03;1.80;;;;;;;7.97;63.85;98987.81;5069076;28;20209;-65
2021/05/05 00:53:25;;;;;;;2.57;1.80;;;;;;;7.96;64.01;98986.13;5068145;28;20228;-65
2021/05/05 00:55:51;;;;;;;1.70;1.60;;;;;;;7.95;63.50;98989.75;5068173;28;20216;-65
2021/05/05 00:58:18;;;;;;;3.77;2.20;;;;;;;7.95;63.44;98997.69;5072265;28;20208;-64
2021/05/05 01:00:46;;;;;;;5.77;1.90;;;;;;;7.93;63.53;98989.88;5072689;28;20206;-66
2021/05/05 01:03:13;;;;;;;2.67;1.67;;;;;;;7.93;63.27;98989.03;5075110;28;20212;-64
2021/05/05 01:05:40;;;;;;;4.07;1.93;;;;;;;7.93;63.31;98995.16;5072586;28;20225;-64
2021/05/05 01:08:07;;;;;;;2.90;1.90;;;;;;;7.91;63.93;98989.13;5071518;28;20296;-64
2021/05/05 01:10:34;;;;;;;2.20;1.80;;;;;;;7.92;63.81;98987.31;5063231;28;20206;-64
2021/05/05 01:13:00;;;;;;;3.23;2.07;;;;;;;7.92;63.96;98987.31;5072106;28;20693;-64
2021/05/05 01:15:28;;;;;;;4.37;2.20;;;;;;;7.90;64.15;98989.25;5072424;28;20225;-65
2021/05/05 01:17:54;;;;;;;2.70;1.93;;;;;;;7.91;63.45;98997.09;5066821;28;20685;-64
2021/05/05 01:20:21;;;;;;;2.57;2.23;;;;;;;7.89;63.68;98992.88;5063768;28;20215;-64
2021/05/05 01:22:48;;;;;;;4.37;2.70;;;;;;;7.89;63.47;99008.78;5068398;28;20270;-64
2021/05/05 01:25:17;;;;;;;2.70;2.50;;;;;;;7.89;63.85;98999.00;5071912;28;20248;-64
2021/05/05 01:27:44;;;;;;;2.50;2.30;;;;;;;7.90;63.92;99002.50;5072475;28;20208;-67
2021/05/05 01:30:12;;;;;;;2.50;2.30;;;;;;;7.92;64.40;99006.72;5065702;28;20209;-67
2021/05/05 01:32:39;;;;;;;3.17;2.83;;;;;;;7.90;63.65;98997.19;5062409;28;21003;-66
2021/05/05 01:35:11;;;;;;;2.30;2.00;;;;;;;7.89;64.25;98998.16;5066674;28;20228;-67
2021/05/05 01:37:37;;;;;;;4.07;2.90;;;;;;;7.88;64.01;99001.81;5072714;28;20215;-66
2021/05/05 01:40:05;;;;;;;3.07;2.80;;;;;;;7.86;64.54;98996.63;5072636;28;20249;-66
2021/05/05 01:42:31;;;;;;;2.50;2.30;;;;;;;7.88;64.17;98999.16;5062083;28;20554;-66
2021/05/05 01:44:58;;;;;;;3.60;2.70;;;;;;;7.86;64.26;98996.63;5070549;28;20286;-67
2021/05/05 01:47:24;;;;;;;3.33;2.47;;;;;;;7.84;63.93;98998.56;5064815;28;20549;-65
2021/05/05 01:49:50;;;;;;;2.93;2.30;;;;;;;7.84;64.42;98987.94;5071526;28;20209;-66
2021/05/05 01:52:17;;;;;;;2.70;2.50;;;;;;;7.83;64.18;98988.06;5071992;28;20229;-66
2021/05/05 01:54:44;;;;;;;3.10;2.73;;;;;;;7.78;64.37;98990.22;5055274;28;20703;-66
2021/05/05 01:57:39;;;;;;;5.83;2.73;;;;;;;7.77;63.82;98994.69;5070529;28;20211;-67
2021/05/05 02:00:08;;;;;;;3.83;2.53;;;;;;;7.75;63.57;98993.09;5063503;28;20214;-66
2021/05/05 02:02:35;;;;;;;3.27;2.67;;;;;;;7.72;63.44;98991.53;5070705;28;20231;-66
2021/05/05 02:05:01;;;;;;;3.13;2.93;;;;;;;7.73;63.74;98995.88;5066227;28;20225;-66
2021/05/05 02:07:27;;;;;;;3.60;3.27;;;;;;;7.71;63.97;98989.00;5069905;28;20212;-67
2021/05/05 02:09:53;;;;;;;3.20;3.00;;;;;;;7.70;63.97;98993.50;5071378;28;20216;-66
2021/05/05 02:12:19;;;;;;;3.20;3.00;;;;;;;7.68;64.21;98976.03;5068394;28;20225;-67
2021/05/05 02:14:46;;;;;;;3.50;3.20;;;;;;;7.67;64.39;98969.88;5071415;28;20228;-66
2021/05/05 02:17:13;;;;;;;3.30;3.00;;;;;;;7.63;64.07;98971.91;5070640;28;20208;-66
2021/05/05 02:19:39;;;;;;;3.37;3.07;;;;;;;7.60;64.52;98977.44;5071422;28;20263;-66
2021/05/05 02:22:05;;;;;;;3.50;3.20;;;;;;;7.58;64.49;98974.06;5070447;28;20208;-68
2021/05/05 02:24:31;;;;;;;4.13;3.43;;;;;;;7.56;64.51;98981.28;5085407;22;20235;-67
2021/05/05 02:26:57;;;;;;;3.80;3.50;;;;;;;7.55;65.12;98981.41;5069200;28;20196;-67
2021/05/05 02:29:23;;;;;;;4.27;3.87;;;;;;;7.52;65.18;98971.91;5069352;28;20205;-66
2021/05/05 02:31:51;;;;;;;4.43;3.70;;;;;;;7.50;65.51;98973.84;5070410;28;20329;-67
2021/05/05 02:34:17;;;;;;;3.60;3.27;;;;;;;7.49;65.31;98984.56;5062256;28;20244;-67
2021/05/05 02:36:43;;;;;;;4.23;3.80;;;;;;;7.45;65.02;98983.94;5051778;28;20216;-67
2021/05/05 02:39:11;;;;;;;3.77;3.47;;;;;;;7.43;65.08;98979.72;5050479;28;20271;-67
2021/05/05 02:41:38;;;;;;;5.07;3.50;;;;;;;7.40;65.53;98964.91;5050466;28;20259;-66
2021/05/05 02:44:05;;;;;;;5.43;3.90;;;;;;;7.39;65.57;98965.84;5050933;28;20590;-66
2021/05/05 02:46:31;;;;;;;4.10;3.70;;;;;;;7.38;65.43;98972.13;5050333;28;20671;-66
2021/05/05 02:48:58;;;;;;;3.70;3.40;;;;;;;7.36;65.67;98957.28;5050733;28;20205;-66
2021/05/05 02:51:24;;;;;;;3.77;3.47;;;;;;;7.34;65.34;98959.25;5051001;28;20235;-66
2021/05/05 02:53:50;;;;;;;4.00;3.20;;;;;;;7.29;65.18;98952.50;5049012;28;20733;-66
2021/05/05 02:56:16;;;;;;;3.50;3.20;;;;;;;7.28;65.71;98960.56;5051329;28;20202;-67
2021/05/05 02:58:45;;;;;;;4.33;3.73;;;;;;;7.25;65.82;98964.28;5050676;28;20207;-67
2021/05/05 03:01:11;;;;;;;3.73;3.43;;;;;;;7.22;65.73;98969.81;5051222;28;20213;-67
2021/05/05 03:03:37;;;;;;;4.40;4.10;;;;;;;7.20;66.23;98963.78;5049319;28;20552;-67
2021/05/05 03:06:05;;;;;;;4.43;3.90;;;;;;;7.20;66.16;98962.94;5051347;28;20274;-67
2021/05/05 03:08:31;;;;;;;4.60;4.20;;;;;;;7.19;66.33;98958.59;5050730;28;20209;-68
2021/05/05 03:10:57;;;;;;;4.00;3.60;;;;;;;7.20;66.76;98968.22;5049447;28;20210;-68
2021/05/05 03:13:23;;;;;;;4.10;3.80;;;;;;;7.17;67.04;98958.72;5050228;28;20243;-65
2021/05/05 03:15:49;;;;;;;3.47;3.17;;;;;;;7.15;66.77;98957.16;5049922;28;20324;-65
2021/05/05 03:18:15;;;;;;;4.13;3.73;;;;;;;7.14;66.97;98963.41;5048655;28;20213;-65
2021/05/05 03:20:41;;;;;;;4.60;4.20;;;;;;;7.13;66.71;98948.50;5046250;28;20705;-66
2021/05/05 03:23:08;;;;;;;4.00;3.70;;;;;;;7.13;67.06;98956.44;5049912;28;20247;-65
2021/05/05 03:25:34;;;;;;;5.00;4.10;;;;;;;7.13;66.55;98964.38;5041826;28;20237;-66
2021/05/05 03:28:00;;;;;;;4.73;4.20;;;;;;;7.13;66.86;98974.97;5049563;28;20205;-66
2021/05/05 03:30:26;;;;;;;4.50;4.10;;;;;;;7.13;66.95;98967.88;5043793;28;20665;-66
2021/05/05 03:32:52;;;;;;;5.63;4.60;;;;;;;7.11;66.88;98964.50;5049121;28;20225;-66
2021/05/05 03:35:18;;;;;;;4.80;4.40;;;;;;;7.12;66.94;98974.13;5049548;28;20248;-68
2021/05/05 03:37:44;;;;;;;5.23;4.37;;;;;;;7.11;67.00;98972.44;5050021;28;20217;-68
2021/05/05 03:40:12;;;;;;;5.63;3.83;;;;;;;7.10;67.06;98988.44;5047532;28;20228;-67
2021/05/05 03:42:38;;;;;;;3.97;3.63;;;;;;;7.11;66.77;98984.81;5049398;28;20206;-67
2021/05/05 03:45:07;;;;;;;6.33;4.10;;;;;;;7.11;67.41;98990.13;5048836;28;20722;-67
2021/05/05 03:47:33;;;;;;;4.63;3.97;;;;;;;7.13;67.06;98988.19;5050440;28;20212;-67
2021/05/05 03:50:00;;;;;;;3.67;3.37;;;;;;;7.12;66.72;98986.50;5049675;28;20715;-68
2021/05/05 03:52:26;;;;;;;5.60;3.63;;;;;;;7.14;66.42;99003.13;5049378;28;20299;-67
2021/05/05 03:54:53;;;;;;;6.63;3.37;;;;;;;7.13;66.95;98998.78;5049666;28;20237;-68
2021/05/05 03:57:19;;;;;;;4.63;3.10;;;;;;;7.14;66.46;98987.25;5049835;28;20205;-67
2021/05/05 03:59:45;;;;;;;5.07;3.73;;;;;;;7.13;66.25;98993.50;5049238;28;20209;-67
2021/05/05 04:02:11;;;;;;;5.33;3.60;;;;;;;7.15;66.59;98992.44;5048628;28;20271;-65
2021/05/05 04:04:37;;;;;;;6.23;3.27;;;;;;;7.15;66.89;98994.22;5050085;28;20267;-67
2021/05/05 04:07:03;;;;;;;6.17;4.10;;;;;;;7.16;66.72;98995.91;5049030;28;20662;-67
2021/05/05 04:09:29;;;;;;;4.23;3.70;;;;;;;7.15;66.94;98987.13;5049747;28;20248;-65
2021/05/05 04:11:55;;;;;;;5.20;4.00;;;;;;;7.16;66.84;98995.91;5047172;28;20316;-65
2021/05/05 04:14:22;;;;;;;4.83;3.53;;;;;;;7.18;66.89;99007.22;5049359;28;20228;-65
2021/05/05 04:16:48;;;;;;;3.97;3.60;;;;;;;7.20;66.42;99000.00;5038162;28;20683;-66
2021/05/05 04:19:14;;;;;;;5.37;4.30;;;;;;;7.19;66.16;99011.53;5038523;28;20197;-65
2021/05/05 04:21:41;;;;;;;5.87;4.33;;;;;;;7.20;66.86;99002.63;5037830;28;20202;-65
2021/05/05 04:24:08;;;;;;;4.93;4.13;;;;;;;7.19;66.67;99006.25;5038663;28;20217;-65
2021/05/05 04:26:34;;;;;;;6.00;4.20;;;;;;;7.19;67.06;99004.44;5039489;28;20202;-65
2021/05/05 04:29:00;;;;;;;4.30;3.90;;;;;;;7.20;66.98;99005.28;5041399;28;20202;-66
2021/05/05 04:31:28;;;;;;;5.23;4.77;;;;;;;7.20;67.22;99010.59;5038929;28;20201;-68
2021/05/05 04:33:54;;;;;;;4.67;4.17;;;;;;;7.20;66.86;99005.28;5044823;28;20234;-67
2021/05/05 04:36:20;;;;;;;4.23;3.83;;;;;;;7.18;67.14;99013.34;5038510;28;20293;-66
2021/05/05 04:38:46;;;;;;;5.20;3.87;;;;;;;7.18;67.05;99009.84;5037910;28;20296;-64
2021/05/05 04:41:13;;;;;;;4.43;3.97;;;;;;;7.17;66.75;99011.66;5044856;28;20208;-65
2021/05/05 04:43:39;;;;;;;3.77;3.47;;;;;;;7.15;67.11;99018.91;5047035;28;20214;-66
2021/05/05 04:46:05;;;;;;;4.37;3.13;;;;;;;7.15;66.60;99013.59;5038132;28;20741;-66
2021/05/05 04:48:32;;;;;;;3.80;3.40;;;;;;;7.15;66.73;99012.75;5035711;28;20202;-66
2021/05/05 04:50:58;;;;;;;4.87;3.30;;;;;;;7.13;66.32;99018.16;5034138;28;20207;-65
2021/05/05 04:53:24;;;;;;;8.23;3.70;;;;;;;7.14;65.98;99008.41;5034993;28;20226;-64
2021/05/05 04:55:51;;;;;;;3.33;3.03;;;;;;;7.15;65.84;99020.69;5053108;28;20229;-65
2021/05/05 04:58:17;;;;;;;3.43;3.03;;;;;;;7.14;65.76;99022.50;5048490;28;20231;-64
2021/05/05 05:00:43;;;;;;;4.13;2.80;;;;;;;7.14;65.52;99038.38;5051504;28;20206;-66
2021/05/05 05:03:09;;;;;;;2.87;2.53;;;;;;;7.15;65.85;99036.59;5047479;28;20294;-64
2021/05/05 05:05:36;;;;;;;3.83;3.23;;;;;;;7.15;65.89;99041.88;5043960;28;20234;-66
2021/05/05 05:08:02;;;;;;;3.33;2.73;;;;;;;7.17;65.05;99043.44;5035681;28;20206;-65
2021/05/05 05:10:28;;;;;;;3.87;2.37;;;;;;;7.18;65.54;99049.56;5037362;28;20229;-65
2021/05/05 05:12:55;;;;;;;3.47;2.73;;;;;;;7.18;65.63;99044.28;5042396;28;20594;-64
2021/05/05 05:15:21;;;;;;;5.20;2.83;;;;;;;7.19;65.22;99041.50;5049678;28;20757;-65
2021/05/05 05:17:47;;;;;;;3.43;2.90;;;;;;;7.22;65.33;99046.59;5047009;28;20224;-65
2021/05/05 05:20:14;;;;;;;5.10;2.47;;;;;;;7.24;65.25;99059.72;5048777;28;20206;-65
2021/05/05 05:22:41;;;;;;;3.63;3.10;;;;;;;7.25;65.94;99056.09;5046077;28;20202;-63
2021/05/05 05:25:10;;;;;;;7.87;3.33;;;;;;;7.22;66.39;99049.22;5047073;28;20233;-66
2021/05/05 05:27:36;;;;;;;3.90;3.27;;;;;;;7.19;66.81;99061.84;5048284;28;20686;-65
2021/05/05 05:30:03;;;;;;;4.60;3.67;;;;;;;7.16;66.79;99062.09;5049943;28;20214;-64
2021/05/05 05:32:29;;;;;;;5.10;4.17;;;;;;;7.13;67.41;99063.16;5054102;28;20226;-66
2021/05/05 05:34:55;;;;;;;5.10;3.73;;;;;;;7.11;67.80;99064.25;5061172;28;20260;-68
2021/05/05 05:37:21;;;;;;;6.40;4.00;;;;;;;7.09;68.44;99071.44;5067151;28;20213;-67
2021/05/05 05:39:47;;;;;;;5.30;4.17;;;;;;;7.07;68.99;99065.41;5061124;28;20230;-68
2021/05/05 05:42:13;;;;;;;4.87;3.87;;;;;;;7.06;68.99;99076.97;5060198;28;20198;-67
2021/05/05 05:44:39;;;;;;;4.67;3.87;;;;;;;7.05;69.70;99084.06;5054189;28;20729;-67
2021/05/05 05:47:05;;;;;;;5.73;3.90;;;;;;;7.05;69.76;99081.41;5066320;28;20209;-67
2021/05/05 05:49:32;;;;;;;7.30;4.27;;;;;;;7.08;69.86;99085.63;5059642;28;20207;-67
2021/05/05 05:51:58;;;;;;;4.33;3.93;;;;;;;7.10;70.45;99089.03;5047101;28;20202;-67
2021/05/05 05:54:24;;;;;;;4.23;3.70;;;;;;;7.10;70.40;99078.44;5044149;28;20225;-67
2021/05/05 05:56:51;;;;;;;7.03;3.93;;;;;;;7.09;70.05;99082.88;5044097;28;20239;-67
2021/05/05 05:59:17;;;;;;;4.03;3.63;;;;;;;7.11;70.02;99093.34;5037986;28;20655;-67
2021/05/05 06:01:43;;;;;;;5.43;3.63;;;;;;;7.12;69.88;99093.25;5044089;28;20216;-67
2021/05/05 06:04:09;;;;;;;4.10;3.43;;;;;;;7.13;69.94;99088.81;5044234;28;20241;-67
2021/05/05 06:06:35;;;;;;;4.10;3.17;;;;;;;7.13;69.42;99096.75;5045158;28;20208;-66
2021/05/05 06:09:03;;;;;;;4.83;3.40;;;;;;;7.14;69.08;99101.94;5047166;28;20206;-67
2021/05/05 06:11:29;;;;;;;4.27;3.20;;;;;;;7.14;69.22;99101.09;5042457;28;20202;-67
2021/05/05 06:13:55;;;;;;;3.50;3.20;;;;;;;7.15;68.75;99108.06;5045074;28;20266;-67
2021/05/05 06:16:21;;;;;;;5.60;3.40;;;;;;;7.16;68.66;99104.47;5048534;28;20214;-67
2021/05/05 06:18:47;;;;;;;6.57;3.33;;;;;;;7.18;68.60;99098.06;5038100;28;20213;-67
2021/05/05 06:21:13;;;;;;;4.27;3.80;;;;;;;7.20;68.38;99097.97;5031751;28;20205;-67
2021/05/05 06:23:39;;;;;;;4.13;3.30;;;;;;;7.21;68.86;99107.59;5031420;28;20283;-67
2021/05/05 06:26:05;;;;;;;6.17;3.20;;;;;;;7.26;68.01;99094.88;5035090;28;20265;-67
2021/05/05 06:28:31;;;;;;;4.17;2.70;;;;;;;7.33;68.34;99106.69;5036243;28;20755;-67
2021/05/05 06:30:58;;;;;;;5.50;2.50;;;;;;;7.39;67.01;99100.94;5034179;28;20282;-67
2021/05/05 06:33:25;;;;;;;4.83;2.40;;;;;;;7.42;67.29;99102.50;5031266;28;20222;-67
2021/05/05 06:35:51;;;;;;;3.00;2.70;;;;;;;7.42;66.49;99111.31;5033810;28;20234;-67
2021/05/05 06:38:17;;;;;;;4.07;2.50;;;;;;;7.42;67.10;99111.31;5033786;28;20209;-67
2021/05/05 06:40:43;;;;;;;4.83;3.23;;;;;;;7.44;66.31;99109.38;5031800;28;20216;-67
2021/05/05 06:43:09;;;;;;;3.33;2.80;;;;;;;7.48;66.85;99120.59;5029727;28;20421;-67
2021/05/05 06:45:35;;;;;;;3.37;2.90;;;;;;;7.54;66.38;99123.63;5031122;28;20226;-68
2021/05/05 06:48:02;;;;;;;3.33;2.47;;;;;;;7.62;66.47;99120.41;5031007;28;20206;-67
2021/05/05 06:50:28;;;;;;;2.87;2.20;;;;;;;7.71;66.21;99119.69;5031407;28;20198;-67
2021/05/05 06:52:56;;;;;;;3.10;2.17;;;;;;;7.86;65.91;99115.06;5027724;28;20237;-67
2021/05/05 06:55:22;;;;;;;3.20;2.20;;;;;;;8.03;65.41;99117.25;5030819;28;20221;-67
2021/05/05 06:57:48;;;;;;;4.33;2.07;;;;;;;8.16;65.34;99119.78;5031370;28;20616;-67
2021/05/05 07:00:15;;;;;;;3.90;1.80;;;;;;;8.23;64.39;99132.47;5032123;28;20252;-67
2021/05/05 07:02:41;;;;;;;4.10;2.17;;;;;;;8.24;63.52;99112.09;5029318;28;20216;-67
2021/05/05 07:05:10;;;;;;;3.23;1.83;;;;;;;8.20;63.52;99129.22;5029852;28;20778;-67
2021/05/05 07:07:36;;;;;;;3.60;1.87;;;;;;;8.17;62.68;99127.63;5030531;28;20213;-67
2021/05/05 07:10:03;;;;;;;2.17;1.70;;;;;;;8.13;62.29;99128.81;5032153;28;20214;-67
2021/05/05 07:12:29;;;;;;;4.40;1.80;;;;;;;8.09;62.59;99131.81;5030736;28;20229;-67
2021/05/05 07:14:55;;;;;;;3.50;1.90;;;;;;;8.07;61.79;99129.28;5031131;28;20669;-67
2021/05/05 07:17:22;;;;;;;4.27;1.70;;;;;;;8.04;62.32;99137.50;5031549;28;20206;-67
2021/05/05 07:19:49;;;;;;;3.20;1.80;;;;;;;8.01;62.57;99137.72;5031446;28;20206;-67
2021/05/05 07:22:16;;;;;;;3.50;2.07;;;;;;;7.98;62.23;99132.66;5029950;28;20202;-67
2021/05/05 07:24:42;;;;;;;3.10;2.13;;;;;;;7.98;62.50;99130.84;5030756;28;20602;-68
2021/05/05 07:27:09;;;;;;;4.47;2.30;;;;;;;8.00;62.24;99128.94;5031438;28;20356;-67
2021/05/05 07:29:35;;;;;;;4.43;1.93;;;;;;;8.10;62.56;99125.56;5032236;28;20198;-67
2021/05/05 07:32:01;;;;;;;7.37;2.37;;;;;;;8.20;62.55;99123.91;5030967;28;20208;-67
2021/05/05 07:34:27;;;;;;;5.13;2.23;;;;;;;8.30;63.64;99125.69;5032960;28;20218;-67
2021/05/05 07:36:57;;;;;;;4.17;2.53;;;;;;;8.44;62.57;99122.00;5032642;28;20272;-67
2021/05/05 07:42:57;;;;;;;4.77;1.73;;;;;;;8.70;63.04;99125.25;4998526;28;20214;-67
2021/05/05 07:45:34;;;;;;;5.23;2.23;;;;;;;8.80;62.22;99128.84;5031070;28;20229;-67
2021/05/05 07:48:05;;;;;;;4.33;2.30;;;;;;;8.83;62.02;99123.28;5032306;28;20209;-67
2021/05/05 07:50:31;;;;;;;5.73;1.97;;;;;;;8.88;61.41;99145.00;5029984;28;20210;-68
2021/05/05 07:52:58;;;;;;;3.30;2.03;;;;;;;8.93;62.11;99140.19;5027219;28;20222;-67
2021/05/05 07:55:25;;;;;;;4.67;2.07;;;;;;;9.04;61.86;99132.19;5029578;28;20225;-66
2021/05/05 07:57:51;;;;;;;3.60;1.70;;;;;;;9.18;60.53;99133.72;5030513;28;20767;-67
2021/05/05 08:00:18;;;;;;;2.13;1.50;;;;;;;9.31;60.67;99130.91;5028942;28;20234;-67
2021/05/05 08:02:44;;;;;;;5.37;1.80;;;;;;;9.45;59.57;99125.31;5029176;28;20209;-67
2021/05/05 08:05:11;;;;;;;5.47;1.77;;;;;;;9.55;59.18;99134.19;5030663;28;20251;-67
2021/05/05 08:07:38;;;;;;;2.90;1.50;;;;;;;9.63;58.47;99133.56;5043982;28;20205;-68
2021/05/05 08:10:04;;;;;;;4.90;1.83;;;;;;;9.67;57.76;99137.66;5042659;28;20198;-67
2021/05/05 08:12:32;;;;;;;9.03;2.37;;;;;;;9.73;57.82;99147.75;5036124;28;20226;-67
2021/05/05 08:14:58;;;;;;;3.97;1.90;;;;;;;9.75;56.42;99146.66;5040325;28;20230;-67
2021/05/05 08:17:24;;;;;;;4.10;1.57;;;;;;;9.80;56.51;99135.66;5039532;28;20206;-67
2021/05/05 08:19:50;;;;;;;5.83;1.70;;;;;;;9.78;55.82;99147.38;5037787;28;20205;-68
2021/05/05 08:22:16;;;;;;;5.47;1.80;;;;;;;9.79;56.07;99141.94;5036931;28;20206;-67
2021/05/05 08:24:42;;;;;;;5.93;1.83;;;;;;;9.85;56.27;99144.09;5078119;22;20233;-67
2021/05/05 08:27:08;;;;;;;5.40;2.63;;;;;;;9.93;56.82;99149.59;5072633;28;20204;-67
2021/05/05 08:29:35;;;;;;;6.90;1.70;;;;;;;10.01;55.40;99154.28;5070815;28;20254;-67
2021/05/05 08:32:03;;;;;;;4.20;1.80;;;;;;;10.05;55.03;99161.00;5059029;28;20592;-66
2021/05/05 08:34:29;;;;;;;4.10;1.83;;;;;;;10.08;55.51;99140.31;5060180;28;20227;-67
2021/05/05 08:36:56;;;;;;;3.67;1.50;;;;;;;10.16;54.80;99142.31;5048790;28;20210;-67
2021/05/05 08:39:22;;;;;;;3.53;1.80;;;;;;;10.21;53.80;99144.63;5040749;28;20205;-67
2021/05/05 08:41:49;;;;;;;2.47;1.23;;;;;;;10.24;54.05;99171.78;5042164;28;20214;-67
2021/05/05 08:44:16;;;;;;;4.50;1.50;;;;;;;10.22;53.05;99148.94;5041243;28;20686;-67
2021/05/05 08:46:44;;;;;;;4.50;1.63;;;;;;;10.16;52.99;99158.28;5039615;28;20258;-66
2021/05/05 08:49:12;;;;;;;4.73;1.50;;;;;;;10.15;52.64;99153.94;5037992;28;20210;-67
2021/05/05 08:51:38;;;;;;;5.90;2.00;;;;;;;10.12;53.28;99161.31;5044292;28;20227;-67
2021/05/05 08:54:07;;;;;;;5.90;1.90;;;;;;;10.17;53.72;99181.25;5034053;28;20592;-67
2021/05/05 08:56:35;;;;;;;5.70;1.57;;;;;;;10.27;53.85;99184.00;5033255;28;20232;-67
2021/05/05 08:59:02;;;;;;;8.47;1.90;;;;;;;10.32;53.70;99164.00;5041191;28;20211;-67
2021/05/05 09:01:28;;;;;;;2.97;1.40;;;;;;;10.30;53.35;99176.59;5035849;28;20198;-67
2021/05/05 09:03:55;;;;;;;5.40;1.80;;;;;;;10.28;54.03;99172.38;5034491;28;20289;-67
2021/05/05 09:06:48;;;;;;;4.43;1.67;;;;;;;10.24;53.20;99174.44;5044609;28;20221;-67
2021/05/05 09:09:34;;;;;;;7.23;1.80;;;;;;;10.21;53.10;99160.59;5040649;28;20198;-67
2021/05/05 09:12:01;;;;;;;2.80;1.47;;;;;;;10.19;52.91;99150.06;5037737;28;20671;-67
2021/05/05 09:14:28;;;;;;;4.77;1.63;;;;;;;10.19;52.91;99165.19;5035253;28;20222;-66
2021/05/05 09:16:54;;;;;;;4.20;2.33;;;;;;;10.19;53.28;99158.06;5040852;28;20209;-67
2021/05/05 09:19:22;;;;;;;3.70;1.43;;;;;;;10.19;53.45;99163.38;5034989;28;20211;-67
2021/05/05 09:21:51;;;;;;;4.97;1.50;;;;;;;10.22;53.71;99152.44;5037116;28;20674;-67
2021/05/05 09:24:27;;;;;;;2.97;1.33;;;;;;;10.21;53.09;99176.56;5033064;28;20647;-67
2021/05/05 09:26:55;;;;;;;4.23;1.70;;;;;;;10.15;53.40;99180.53;5039280;28;20202;-66
2021/05/05 09:29:36;;;;;;;2.43;1.33;;;;;;;10.09;54.84;99197.00;5035196;28;20238;-66
2021/05/05 09:32:02;;;;;;;3.60;1.97;;;;;;;9.96;55.98;99205.19;5038695;28;20221;-67
2021/05/05 09:34:29;;;;;;;4.77;1.90;;;;;;;9.84;57.41;99189.41;5043421;28;20280;-67
2021/05/05 09:36:57;;;;;;;3.47;2.10;;;;;;;9.78;59.28;99190.75;5040704;28;20216;-67
2021/05/05 09:39:29;;;;;;;4.70;2.30;;;;;;;9.82;59.91;99196.66;5041335;28;20249;-66
2021/05/05 09:41:55;;;;;;;3.00;2.20;;;;;;;9.88;61.16;99196.97;5037657;28;20206;-67
2021/05/05 09:44:21;;;;;;;3.60;2.03;;;;;;;9.92;61.55;99198.41;5033339;28;20204;-66
2021/05/05 09:46:50;;;;;;;5.73;2.60;;;;;;;9.93;61.69;99199.28;5040515;28;20202;-66
2021/05/05 09:49:26;;;;;;;4.83;1.87;;;;;;;9.99;60.86;99199.63;5045038;28;20227;-66
2021/05/05 09:51:57;;;;;;;2.77;1.60;;;;;;;10.07;61.16;99202.44;5042700;28;20682;-67
2021/05/05 09:54:25;;;;;;;4.27;2.13;;;;;;;10.14;59.60;99197.47;5039555;28;20272;-66
2021/05/05 09:56:51;;;;;;;4.27;1.60;;;;;;;10.14;59.17;99208.09;5036663;28;20206;-67
2021/05/05 09:59:17;;;;;;;3.37;1.93;;;;;;;10.10;57.32;99196.88;5038005;28;20206;-66
2021/05/05 10:01:59;;;;;;;4.70;2.00;;;;;;;10.10;57.37;99193.38;5035271;28;20255;-67
2021/05/05 10:04:25;;;;;;;2.87;2.00;;;;;;;10.21;57.53;99203.16;5038032;28;20194;-67
2021/05/05 10:06:57;;;;;;;2.83;1.80;;;;;;;10.34;58.00;99191.34;5040537;28;20257;-67
2021/05/05 10:09:24;;;;;;;5.17;2.50;;;;;;;10.44;56.11;99204.69;5043229;28;20201;-67
2021/05/05 10:11:51;;;;;;;4.43;1.80;;;;;;;10.49;56.38;99193.66;5048074;28;20210;-66
2021/05/05 10:14:19;;;;;;;2.83;1.90;;;;;;;10.51;55.64;99189.88;5043952;28;20235;-67
2021/05/05 10:16:47;;;;;;;5.80;1.93;;;;;;;10.60;54.44;99198.88;5044659;28;20205;-67
2021/05/05 10:19:15;;;;;;;4.03;2.07;;;;;;;10.61;53.76;99196.09;5045603;28;20210;-67
2021/05/05 10:21:46;;;;;;;4.77;2.37;;;;;;;10.62;53.49;99196.94;5043734;28;20304;-67
2021/05/05 10:24:13;;;;;;;2.27;1.80;;;;;;;10.62;52.92;99199.59;5035187;28;20289;-69
2021/05/05 10:26:42;;;;;;;5.10;1.90;;;;;;;10.63;51.87;99214.59;5015963;28;20203;-65
2021/05/05 10:29:08;;;;;;;2.70;1.70;;;;;;;10.63;52.27;99206.59;5018351;28;20297;-67
2021/05/05 10:31:36;;;;;;;2.37;1.77;;;;;;;10.69;52.58;99203.44;5017396;28;20211;-65
2021/05/05 10:34:08;;;;;;;3.60;2.33;;;;;;;10.69;52.58;99193.63;5016287;28;20229;-64
2021/05/05 10:36:38;;;;;;;3.27;2.23;;;;;;;10.74;52.77;99199.41;5016954;28;20318;-65
2021/05/05 10:39:31;;;;;;;3.23;2.10;;;;;;;10.88;52.60;99206.19;5023835;28;20207;-65
2021/05/05 10:42:13;;;;;;;3.17;2.10;;;;;;;11.02;52.67;99212.94;5022466;28;20681;-65
2021/05/05 10:44:40;;;;;;;3.50;1.70;;;;;;;11.12;51.73;99206.66;5019015;28;20226;-65
2021/05/05 10:47:16;;;;;;;3.50;1.93;;;;;;;11.13;50.71;99199.50;5015911;28;20202;-65
2021/05/05 10:50:08;;;;;;;3.40;2.00;;;;;;;11.11;50.58;99215.63;5016310;28;20216;-65
2021/05/05 10:53:08;;;;;;;4.37;1.80;;;;;;;11.16;50.68;99212.56;5017422;28;20234;-64
2021/05/05 10:55:55;;;;;;;3.77;1.60;;;;;;;11.23;50.39;99226.19;5017270;28;20466;-65
2021/05/05 10:58:24;;;;;;;5.37;2.00;;;;;;;11.28;49.51;99223.97;5015093;28;20647;-65
2021/05/05 11:00:56;;;;;;;3.43;1.27;;;;;;;11.34;49.20;99237.59;5013986;28;20207;-63
2021/05/05 11:04:02;;;;;;;3.07;1.37;;;;;;;11.41;48.27;99221.91;5015566;28;20601;-65
2021/05/05 11:06:48;;;;;;;4.17;1.50;;;;;;;11.47;48.10;99226.66;5011737;28;20234;-65
2021/05/05 11:09:42;;;;;;;2.67;1.33;;;;;;;11.55;48.25;99240.16;5014345;28;20210;-65
2021/05/05 11:12:44;;;;;;;4.57;2.10;;;;;;;11.69;48.04;99233.59;5003089;28;20219;-65
2021/05/05 11:15:11;;;;;;;4.47;1.77;;;;;;;11.76;47.31;99232.94;5015260;28;20223;-66
2021/05/05 11:17:37;;;;;;;3.97;1.70;;;;;;;11.80;46.87;99236.19;5020512;28;20674;-66
2021/05/05 11:20:05;;;;;;;3.90;1.40;;;;;;;11.85;46.97;99249.91;5015995;28;20214;-65
2021/05/05 11:22:46;;;;;;;3.60;1.60;;;;;;;11.93;47.27;99254.56;5016578;28;20219;-65
2021/05/05 11:25:24;;;;;;;4.77;1.57;;;;;;;11.95;47.05;99263.28;5027400;28;20238;-66
2021/05/05 11:27:53;;;;;;;2.60;1.50;;;;;;;11.87;46.54;99274.63;5034149;28;20217;-65
2021/05/05 11:30:52;;;;;;;6.33;1.90;;;;;;;11.74;47.26;99285.53;5037183;28;20210;-65
2021/05/05 11:33:19;;;;;;;3.77;2.13;;;;;;;11.64;47.92;99287.34;5017467;28;20743;-65
2021/05/05 11:35:45;;;;;;;4.70;2.80;;;;;;;11.61;49.62;99287.63;5035223;28;20730;-65
2021/05/05 11:38:21;;;;;;;5.00;2.13;;;;;;;11.57;50.88;99283.53;5036454;28;20234;-65
2021/05/05 11:40:52;;;;;;;4.67;2.03;;;;;;;11.57;51.51;99278.19;5035658;28;20198;-65
2021/05/05 11:43:19;;;;;;;4.10;2.13;;;;;;;11.58;51.99;99279.91;5037295;28;20213;-65
2021/05/05 11:45:52;;;;;;;7.60;2.70;;;;;;;11.59;51.69;99270.91;5036647;28;20216;-65
2021/05/05 11:48:30;;;;;;;3.67;2.00;;;;;;;11.63;51.07;99279.50;5034780;28;20207;-65